Andover, VA

2:36 AM EDT on August 27, 2016 (GMT -0400)
Lonesome Pine

Weather History for KLNP - May, 2014

Change the Weather History Date:

Sunday, May 25, 2014

  Actual Average Record
Temperature  
Mean Temperature 64 °F -  
Max Temperature 77 °F 69 °F 82 °F (2007)
Min Temperature 50 °F 51 °F 37 °F (2013)
Degree Days  
Heating Degree Days 2    
Growing Degree Days 14 (Base 50)    
Moisture  
Dew Point 48 °F    
Average Humidity 59    
Maximum Humidity 94    
Minimum Humidity 31    
Precipitation  
Precipitation 0.00 in - - ()
Sea Level Pressure  
Sea Level Pressure 30.22 in    
Wind  
Wind Speed 2 mph (SW)    
Max Wind Speed 10 mph    
Max Gust Speed -    
Visibility 10 miles    
Events      
Averages and records for this station are not official NWS values.
T = Trace of Precipitation, MM = Missing Value Source: NWS Daily Summary

Daily Weather History Graph

Daily Weather History Graph

Search for Another Location

Airport or City:

Trip Planner

Search our weather history database for the weather conditions in past years. The results will help you decide how hot, cold, wet, or windy it might be!

Date:

Astronomy

May. 25, 2014 Rise Set
Actual Time 6:15 AM EDT 8:39 PM EDT
Civil Twilight 5:45 AM EDT 9:09 PM EDT
Nautical Twilight 5:08 AM EDT 9:45 PM EDT
Astronomical Twilight 4:28 AM EDT 10:26 PM EDT
Moon 4:14 AM EDT (5/25) 5:42 PM EDT (5/25)
Length of Visible Light 15h 23m
Length of Day
14h 24m
Waning Crescent, 10% of the Moon is Illuminated
May 25
Waning Crescent
May 28
New
Jun 5
First Quarter
Jun 13
Full
Jun 19
Last Quarter

Hourly Weather History & Observations

Time (EDT) Temp. Dew Point Humidity Pressure Visibility Wind Dir Wind Speed Gust Speed Precip Events Conditions
12:15 AM 59.0 °F 46.4 °F 63% 30.23 in 10.0 mi Calm Calm - N/A   Clear
12:35 AM 57.2 °F 46.4 °F 67% 30.22 in 10.0 mi Calm Calm - N/A   Clear
12:55 AM 55.4 °F 46.4 °F 72% 30.22 in 10.0 mi NE 3.5 mph - N/A   Clear
1:15 AM 57.2 °F 46.4 °F 67% 30.21 in 10.0 mi Calm Calm - N/A   Clear
1:35 AM 55.4 °F 46.4 °F 72% 30.21 in 10.0 mi NE 3.5 mph - N/A   Clear
1:55 AM 57.2 °F 44.6 °F 63% 30.21 in 10.0 mi Calm Calm - N/A   Clear
2:15 AM 57.2 °F 44.6 °F 63% 30.21 in 10.0 mi Calm Calm - N/A   Clear
2:35 AM 55.4 °F 46.4 °F 72% 30.20 in 10.0 mi Calm Calm - N/A   Clear
2:55 AM 55.4 °F 46.4 °F 72% 30.20 in 10.0 mi Calm Calm - N/A   Clear
3:15 AM 53.6 °F 44.6 °F 72% 30.20 in 10.0 mi Calm Calm - N/A   Clear
3:35 AM 51.8 °F 44.6 °F 76% 30.19 in 10.0 mi Calm Calm - N/A   Clear
3:55 AM 51.8 °F 48.2 °F 88% 30.19 in 10.0 mi Calm Calm - N/A   Clear
4:15 AM 51.8 °F 50.0 °F 94% 30.20 in 10.0 mi Calm Calm - N/A   Clear
4:35 AM 53.6 °F 46.4 °F 77% 30.20 in 10.0 mi Calm Calm - N/A   Clear
4:55 AM 53.6 °F 44.6 °F 72% 30.19 in 10.0 mi Calm Calm - N/A   Clear
5:15 AM 53.6 °F 44.6 °F 72% 30.20 in 10.0 mi Calm Calm - N/A   Clear
5:35 AM 53.6 °F 44.6 °F 72% 30.20 in 10.0 mi Calm Calm - N/A   Clear
5:55 AM 53.6 °F 46.4 °F 77% 30.20 in 10.0 mi Calm Calm - N/A   Clear
6:15 AM 51.8 °F 44.6 °F 76% 30.21 in 10.0 mi Calm Calm - N/A   Clear
6:35 AM 50.0 °F 48.2 °F 94% 30.21 in 10.0 mi Calm Calm - N/A   Clear
6:55 AM 51.8 °F 50.0 °F 94% 30.21 in 10.0 mi Calm Calm - N/A   Clear
7:15 AM 53.6 °F 50.0 °F 88% 30.22 in 10.0 mi Calm Calm - N/A   Clear
7:35 AM 55.4 °F 46.4 °F 72% 30.22 in 10.0 mi Calm Calm - N/A   Clear
7:55 AM 53.6 °F 46.4 °F 77% 30.23 in 10.0 mi Calm Calm - N/A   Clear
8:15 AM 59.0 °F 48.2 °F 67% 30.23 in 10.0 mi Calm Calm - N/A   Clear
8:35 AM 59.0 °F 50.0 °F 72% 30.23 in 10.0 mi Calm Calm - N/A   Clear
8:55 AM 60.8 °F 51.8 °F 72% 30.23 in 10.0 mi Calm Calm - N/A   Clear
9:15 AM 60.8 °F 51.8 °F 72% 30.24 in 10.0 mi Calm Calm - N/A   Clear
9:30 AM 64.4 °F 48.2 °F 56% 30.24 in 10.0 mi SSE 3.5 mph - N/A   Clear
10:15 AM 68.0 °F 50.0 °F 52% 30.24 in 10.0 mi SSE 3.5 mph - N/A   Clear
10:55 AM 68.0 °F 50.0 °F 52% 30.23 in 10.0 mi Calm Calm - N/A   Clear
11:15 AM 69.8 °F 44.6 °F 40% 30.23 in 10.0 mi SW 3.5 mph - N/A   Clear
11:35 AM 69.8 °F 44.6 °F 40% 30.23 in 10.0 mi South 3.5 mph - N/A   Clear
11:55 AM 71.6 °F 46.4 °F 41% 30.23 in 10.0 mi SSW 4.6 mph - N/A   Clear
12:15 PM 69.8 °F 46.4 °F 43% 30.24 in 10.0 mi South 4.6 mph - N/A   Clear
12:35 PM 69.8 °F 42.8 °F 38% 30.24 in 10.0 mi WSW 5.8 mph - N/A   Clear
12:55 PM 69.8 °F 46.4 °F 43% 30.24 in 10.0 mi SW 5.8 mph - N/A   Clear
1:15 PM 71.6 °F 44.6 °F 38% 30.24 in 10.0 mi WSW 4.6 mph - N/A   Clear
1:35 PM 71.6 °F 46.4 °F 41% 30.24 in 10.0 mi WSW 5.8 mph - N/A   Clear
1:55 PM 71.6 °F 44.6 °F 38% 30.24 in 10.0 mi West 4.6 mph - N/A   Clear
2:15 PM 71.6 °F 46.4 °F 41% 30.23 in 10.0 mi WSW 4.6 mph - N/A   Clear
2:35 PM 71.6 °F 50.0 °F 46% 30.23 in 10.0 mi West 5.8 mph - N/A   Clear
2:55 PM 71.6 °F 48.2 °F 43% 30.23 in 10.0 mi West 4.6 mph - N/A   Clear
3:15 PM 73.4 °F 46.4 °F 38% 30.23 in 10.0 mi SW 8.1 mph - N/A   Clear
3:35 PM 73.4 °F 46.4 °F 38% 30.23 in 10.0 mi WSW 8.1 mph - N/A   Clear
3:55 PM 73.4 °F 42.8 °F 33% 30.22 in 10.0 mi SW 8.1 mph - N/A   Clear
4:15 PM 75.2 °F 44.6 °F 34% 30.21 in 10.0 mi WSW 3.5 mph - N/A   Clear
4:35 PM 75.2 °F 44.6 °F 34% 30.21 in 10.0 mi WSW 5.8 mph - N/A   Clear
4:55 PM 77.0 °F 50.0 °F 39% 30.21 in 10.0 mi SW 4.6 mph - N/A   Clear
5:15 PM 75.2 °F 44.6 °F 34% 30.21 in 10.0 mi SSW 4.6 mph - N/A   Clear
5:35 PM 75.2 °F 42.8 °F 31% 30.21 in 10.0 mi SW 4.6 mph - N/A   Clear
5:55 PM 75.2 °F 46.4 °F 36% 30.21 in 10.0 mi WSW 6.9 mph - N/A   Clear
6:15 PM 75.2 °F 50.0 °F 41% 30.19 in 10.0 mi SW 8.1 mph - N/A   Clear
6:35 PM 73.4 °F 50.0 °F 44% 30.19 in 10.0 mi SSW 5.8 mph - N/A   Clear
6:55 PM 73.4 °F 50.0 °F 44% 30.20 in 10.0 mi WSW 8.1 mph - N/A   Scattered Clouds
7:15 PM 71.6 °F 50.0 °F 46% 30.20 in 10.0 mi West 10.4 mph - N/A   Clear
7:35 PM 71.6 °F 51.8 °F 50% 30.20 in 10.0 mi WSW 6.9 mph - N/A   Clear
7:55 PM 69.8 °F 51.8 °F 53% 30.21 in 10.0 mi WSW 5.8 mph - N/A   Clear
8:15 PM 68.0 °F 51.8 °F 56% 30.21 in 10.0 mi SW 4.6 mph - N/A   Clear
8:35 PM 64.4 °F 51.8 °F 64% 30.21 in 10.0 mi SW 4.6 mph - N/A   Clear
8:55 PM 64.4 °F 51.8 °F 64% 30.21 in 10.0 mi Calm Calm - N/A   Clear
9:15 PM 64.4 °F 51.8 °F 64% 30.21 in 10.0 mi Calm Calm - N/A   Clear
9:35 PM 62.6 °F 51.8 °F 68% 30.21 in 10.0 mi Calm Calm - N/A   Clear
9:55 PM 64.4 °F 51.8 °F 64% 30.22 in 10.0 mi Calm Calm - N/A   Clear
10:15 PM 62.6 °F 51.8 °F 68% 30.22 in 10.0 mi Calm Calm - N/A   Clear
10:35 PM 60.8 °F 51.8 °F 72% 30.23 in 10.0 mi Calm Calm - N/A   Clear
11:15 PM 59.0 °F 51.8 °F 77% 30.23 in 10.0 mi SSW 4.6 mph - N/A   Clear
11:35 PM 59.0 °F 51.8 °F 77% 30.23 in 10.0 mi SSW 3.5 mph - N/A   Clear
11:55 PM 59.0 °F 51.8 °F 77% 30.23 in 10.0 mi Calm Calm - N/A   Clear